Time;durP1;ratioP1;P1;durP2;ratioP2;P2;SDS_P1;SDS_P2;PMS_P1;PMS_P2;Temp;Humidity;BMP_temperature;BMP_pressure;BME280_temperature;BME280_humidity;BME280_pressure;Samples;Min_cycle;Max_cycle;Signal;HPM_P1;HPM_P2
2021/12/19 00:09:34;;;;;;;34.28;16.90;;;;;;;5.25;100.00;103504.94;5071786;28;20387;-67
2021/12/19 00:12:00;;;;;;;34.13;16.02;;;;;;;5.21;100.00;103501.22;5073907;28;20024;-67
2021/12/19 00:14:25;;;;;;;33.55;16.13;;;;;;;5.22;100.00;103499.50;5074295;28;20099;-66
2021/12/19 00:16:52;;;;;;;32.95;16.23;;;;;;;5.24;100.00;103493.56;5073642;28;20399;-67
2021/12/19 00:19:18;;;;;;;34.17;16.42;;;;;;;5.20;100.00;103493.25;5073890;28;20033;-67
2021/12/19 00:21:44;;;;;;;35.47;16.60;;;;;;;5.15;100.00;103492.00;5073837;28;20082;-66
2021/12/19 00:24:10;;;;;;;37.00;17.27;;;;;;;5.14;100.00;103493.75;5073538;28;20103;-67
2021/12/19 00:26:36;;;;;;;36.28;17.60;;;;;;;5.18;100.00;103487.88;5073771;28;20017;-67
2021/12/19 00:29:03;;;;;;;37.38;17.67;;;;;;;5.15;100.00;103489.41;5073504;28;20437;-67
2021/12/19 00:31:29;;;;;;;36.28;17.55;;;;;;;5.12;100.00;103487.47;5073649;28;20024;-68
2021/12/19 00:33:54;;;;;;;35.17;16.95;;;;;;;5.17;100.00;103483.47;5073559;28;20032;-71
2021/12/19 00:36:20;;;;;;;37.40;17.90;;;;;;;5.13;100.00;103468.31;5073410;28;20032;-71
2021/12/19 00:38:46;;;;;;;38.35;17.70;;;;;;;5.10;100.00;103477.66;5073607;28;20016;-68
2021/12/19 00:41:12;;;;;;;39.05;18.00;;;;;;;5.17;100.00;103479.91;5073424;28;20390;-70
2021/12/19 00:43:53;;;;;;;39.40;18.13;;;;;;;5.17;100.00;103483.47;5073178;28;20103;-69
2021/12/19 00:46:21;;;;;;;40.50;18.55;;;;;;;5.13;100.00;103477.91;5072775;28;20459;-69
2021/12/19 00:48:50;;;;;;;41.85;19.23;;;;;;;5.20;100.00;103478.41;5073147;28;20042;-70
2021/12/19 00:51:19;;;;;;;40.13;18.48;;;;;;;5.14;100.00;103480.63;5073241;28;20024;-69
2021/12/19 00:53:45;;;;;;;43.20;19.65;;;;;;;5.15;100.00;103473.66;5072966;28;20032;-70
2021/12/19 00:56:11;;;;;;;40.72;19.08;;;;;;;5.19;100.00;103468.72;5073049;28;20021;-70
2021/12/19 00:58:37;;;;;;;42.72;19.38;;;;;;;5.19;100.00;103466.09;5073466;28;20025;-69
2021/12/19 01:01:05;;;;;;;40.60;18.92;;;;;;;5.19;100.00;103470.44;5072755;28;20479;-69
2021/12/19 01:03:31;;;;;;;43.55;19.52;;;;;;;5.19;100.00;103471.34;5072735;28;20049;-68
2021/12/19 01:05:56;;;;;;;43.42;19.85;;;;;;;5.10;100.00;103461.94;5073209;28;20081;-69
2021/12/19 01:08:22;;;;;;;43.90;20.55;;;;;;;5.06;100.00;103469.59;5072872;28;20409;-68
2021/12/19 01:10:48;;;;;;;45.33;20.92;;;;;;;5.07;100.00;103471.41;5072840;28;20044;-69
2021/12/19 01:13:16;;;;;;;43.75;19.95;;;;;;;5.12;100.00;103471.72;5072989;28;20126;-70
2021/12/19 01:15:42;;;;;;;43.33;19.67;;;;;;;5.10;100.00;103461.94;5072590;28;20028;-69
2021/12/19 01:18:08;;;;;;;45.03;21.20;;;;;;;5.13;100.00;103460.44;5073004;28;20024;-69
2021/12/19 01:20:36;;;;;;;44.35;19.95;;;;;;;5.15;100.00;103460.53;5073201;28;20379;-70
2021/12/19 01:23:03;;;;;;;41.53;17.45;;;;;;;5.16;100.00;103460.66;5072458;28;20111;-70
2021/12/19 01:25:29;;;;;;;43.75;18.50;;;;;;;5.18;100.00;103456.41;5072637;28;20040;-70
2021/12/19 01:27:54;;;;;;;41.33;16.60;;;;;;;5.12;100.00;103452.47;5072774;28;20079;-69
2021/12/19 01:30:20;;;;;;;38.38;16.30;;;;;;;5.14;100.00;103446.53;5072500;28;20071;-70
2021/12/19 01:32:46;;;;;;;39.17;16.58;;;;;;;5.14;100.00;103449.16;5072558;28;20048;-69
2021/12/19 01:35:13;;;;;;;42.63;18.30;;;;;;;5.06;100.00;103450.34;5072896;28;20016;-70
2021/12/19 01:37:39;;;;;;;43.63;17.10;;;;;;;5.04;100.00;103451.97;5072559;28;20111;-70
2021/12/19 01:40:07;;;;;;;42.10;16.90;;;;;;;5.07;100.00;103442.56;5071134;28;20553;-70
2021/12/19 01:42:36;;;;;;;41.35;17.95;;;;;;;5.10;100.00;103443.56;5072610;28;20077;-70
2021/12/19 01:45:03;;;;;;;41.42;17.88;;;;;;;5.07;100.00;103445.19;5072605;28;20027;-69
2021/12/19 01:47:28;;;;;;;41.35;16.77;;;;;;;5.09;100.00;103449.66;5072396;28;20028;-70
2021/12/19 01:49:55;;;;;;;41.92;17.33;;;;;;;5.09;100.00;103449.66;5068485;28;20082;-70
2021/12/19 01:52:21;;;;;;;41.67;16.98;;;;;;;5.11;100.00;103438.47;5072322;28;20020;-70
2021/12/19 01:54:46;;;;;;;40.85;17.17;;;;;;;5.17;100.00;103438.88;5072641;28;20104;-69
2021/12/19 01:57:12;;;;;;;43.90;18.05;;;;;;;5.06;100.00;103438.13;5073993;28;20475;-69
2021/12/19 01:59:37;;;;;;;43.42;18.15;;;;;;;5.06;100.00;103442.47;5076336;28;20028;-69
2021/12/19 02:02:03;;;;;;;43.70;18.77;;;;;;;5.01;100.00;103444.78;5076361;28;20513;-69
2021/12/19 02:04:30;;;;;;;43.53;18.52;;;;;;;4.89;100.00;103434.38;5076303;28;20055;-71
2021/12/19 02:06:57;;;;;;;43.10;16.73;;;;;;;4.88;100.00;103424.69;5076469;28;20099;-70
2021/12/19 02:09:24;;;;;;;41.80;17.52;;;;;;;4.89;100.00;103434.38;5076309;28;20029;-69
2021/12/19 02:11:49;;;;;;;40.60;17.67;;;;;;;4.91;100.00;103428.28;5076383;28;20044;-69
2021/12/19 02:14:15;;;;;;;44.72;18.48;;;;;;;4.86;100.00;103421.06;5076382;28;20032;-69
2021/12/19 02:16:41;;;;;;;43.42;16.92;;;;;;;4.86;100.00;103425.38;5075966;28;20050;-69
2021/12/19 02:19:08;;;;;;;44.33;18.67;;;;;;;4.81;100.00;103427.69;5076299;28;20028;-69
2021/12/19 02:21:34;;;;;;;45.50;19.70;;;;;;;4.87;100.00;103429.81;5075843;28;20035;-69
2021/12/19 02:24:04;;;;;;;47.10;18.42;;;;;;;4.84;100.00;103430.50;5075839;28;20376;-69
2021/12/19 02:26:29;;;;;;;50.22;19.55;;;;;;;4.83;100.00;103423.44;5076154;28;20020;-67
2021/12/19 02:28:55;;;;;;;50.85;20.17;;;;;;;4.83;100.00;103415.56;5075868;28;20396;-67
2021/12/19 02:31:21;;;;;;;50.63;19.65;;;;;;;4.85;100.00;103418.34;5075615;28;20448;-68
2021/12/19 02:34:02;;;;;;;48.95;20.10;;;;;;;4.86;100.00;103417.50;5075927;28;20037;-66
2021/12/19 02:50:24;;;;;;;63.33;22.73;;;;;;;4.80;100.00;103394.41;5053475;28;20107;-67
2021/12/19 02:52:49;;;;;;;68.55;22.33;;;;;;;4.79;100.00;103387.38;5053245;28;20037;-67
2021/12/19 02:55:16;;;;;;;59.33;23.30;;;;;;;4.82;100.00;103390.19;5053231;28;20059;-67
2021/12/19 02:57:42;;;;;;;71.85;24.08;;;;;;;4.77;100.00;103391.56;5053328;28;20033;-67
2021/12/19 03:00:13;;;;;;;72.30;23.70;;;;;;;4.78;100.00;103384.63;5053249;28;20072;-67
2021/12/19 03:02:38;;;;;;;71.40;24.67;;;;;;;4.80;100.00;103383.00;5053034;28;20530;-66
2021/12/19 03:05:04;;;;;;;76.30;23.77;;;;;;;4.80;100.00;103377.78;5053053;28;20052;-67
2021/12/19 03:07:30;;;;;;;65.95;22.83;;;;;;;4.83;100.00;103371.00;5052832;28;20041;-67
2021/12/19 03:20:16;;;;;;;67.95;23.08;;;;;;;4.81;100.00;103370.00;5074976;28;20044;-67
2021/12/19 03:22:41;;;;;;;78.20;25.55;;;;;;;4.76;100.00;103373.13;5074683;28;20052;-66
2021/12/19 03:25:07;;;;;;;63.08;20.75;;;;;;;4.78;100.00;103364.56;5075093;28;20016;-67
2021/12/19 03:27:33;;;;;;;62.97;21.88;;;;;;;4.81;100.00;103362.16;5074669;28;20029;-66
2021/12/19 03:29:58;;;;;;;65.90;21.05;;;;;;;4.84;100.00;103353.59;5075248;28;20106;-66
2021/12/19 03:32:25;;;;;;;78.93;22.77;;;;;;;4.78;100.00;103354.09;5074893;28;20036;-66
2021/12/19 03:34:51;;;;;;;90.40;24.85;;;;;;;4.71;100.00;103351.84;5074489;28;20443;-66
2021/12/19 03:37:16;;;;;;;82.20;23.63;;;;;;;4.76;100.00;103341.66;5074822;28;20024;-66
2021/12/19 03:39:56;;;;;;;77.97;24.55;;;;;;;4.77;100.00;103335.63;5074792;28;20028;-66
2021/12/19 03:42:26;;;;;;;71.80;23.08;;;;;;;4.75;100.00;103343.41;5074762;28;20113;-69
2021/12/19 03:44:52;;;;;;;82.57;25.20;;;;;;;4.76;100.00;103339.06;5074313;28;20032;-69
2021/12/19 03:47:18;;;;;;;86.55;24.98;;;;;;;4.79;100.00;103344.50;5074403;28;20032;-69
2021/12/19 03:49:43;;;;;;;79.00;23.52;;;;;;;4.80;100.00;103339.34;5074356;28;20028;-70
2021/12/19 03:52:08;;;;;;;62.45;22.52;;;;;;;4.83;100.00;103330.81;5074575;28;20086;-69
2021/12/19 03:54:34;;;;;;;57.17;20.70;;;;;;;4.79;100.00;103340.19;5074608;28;20425;-67
2021/12/19 03:56:59;;;;;;;64.22;22.95;;;;;;;4.71;100.00;103336.13;5074566;28;20024;-67
2021/12/19 03:59:26;;;;;;;60.67;22.30;;;;;;;4.69;100.00;103332.50;5074004;28;20074;-68
2021/12/19 04:01:53;;;;;;;61.17;21.50;;;;;;;4.71;100.00;103325.63;5074422;28;20032;-70
2021/12/19 04:04:18;;;;;;;53.95;20.25;;;;;;;4.70;100.00;103329.06;5073881;28;20040;-69
2021/12/19 04:06:43;;;;;;;59.55;20.63;;;;;;;4.68;100.00;103330.69;5074071;28;20051;-69
2021/12/19 04:09:09;;;;;;;53.95;19.20;;;;;;;4.66;100.00;103334.88;5074256;28;20490;-69
2021/12/19 04:11:34;;;;;;;48.72;16.88;;;;;;;4.70;100.00;103324.75;5073877;28;20031;-68
2021/12/19 04:14:00;;;;;;;49.92;17.25;;;;;;;4.65;100.00;103327.84;5073907;28;20027;-67
2021/12/19 04:16:25;;;;;;;50.10;17.38;;;;;;;4.62;100.00;103318.06;5070152;28;20032;-69
2021/12/19 04:18:50;;;;;;;43.00;15.50;;;;;;;4.60;100.00;103316.13;5072064;28;20128;-68
2021/12/19 04:21:16;;;;;;;45.75;16.45;;;;;;;4.62;100.00;103319.78;5073117;28;20075;-70
2021/12/19 04:23:41;;;;;;;47.42;16.05;;;;;;;4.61;100.00;103313.63;5073569;28;20056;-70
2021/12/19 04:26:07;;;;;;;45.28;15.93;;;;;;;4.61;100.00;103311.00;5073630;28;20021;-70
2021/12/19 04:28:32;;;;;;;44.15;15.73;;;;;;;4.61;100.00;103307.47;5073689;28;20040;-69
2021/12/19 04:31:00;;;;;;;43.75;15.30;;;;;;;4.58;100.00;103302.03;5073711;28;20020;-69
2021/12/19 04:33:27;;;;;;;42.25;14.45;;;;;;;4.51;100.00;103311.16;5073351;28;20052;-70
2021/12/19 04:35:59;;;;;;;43.08;14.70;;;;;;;4.47;100.00;103301.28;5073676;28;20079;-70
2021/12/19 04:55:11;;;;;;;39.53;14.27;;;;;;;4.47;100.00;103288.19;5069520;28;20129;-70
2021/12/19 04:57:40;;;;;;;37.90;12.88;;;;;;;4.47;100.00;103281.25;5069768;28;20051;-70
2021/12/19 05:00:10;;;;;;;40.63;13.25;;;;;;;4.40;100.00;103276.41;5073081;28;20037;-70
2021/12/19 05:02:47;;;;;;;37.45;12.88;;;;;;;4.39;100.00;103274.56;5072740;28;20043;-69
2021/12/19 05:15:53;;;;;;;41.42;12.70;;;;;;;4.30;100.00;103272.22;5073042;28;20036;-70
2021/12/19 05:18:22;;;;;;;39.97;12.32;;;;;;;4.30;100.00;103269.63;5072672;28;20028;-70
2021/12/19 05:21:10;;;;;;;42.33;13.30;;;;;;;4.32;100.00;103270.63;5072917;28;20024;-70
2021/12/19 05:26:22;;;;;;;42.75;14.48;;;;;;;4.30;100.00;103269.63;5070774;28;20040;-67
2021/12/19 05:28:48;;;;;;;42.75;14.32;;;;;;;4.29;100.00;103278.25;5070510;28;20076;-68
2021/12/19 05:31:18;;;;;;;44.17;14.27;;;;;;;4.33;100.00;103274.16;5069782;28;20071;-67
2021/12/19 05:33:44;;;;;;;42.95;14.05;;;;;;;4.34;100.00;103278.59;5070424;28;20108;-67
2021/12/19 05:46:49;;;;;;;35.47;11.50;;;;;;;4.27;100.00;103273.75;5070563;28;20121;-67
2021/12/19 05:49:14;;;;;;;35.05;12.05;;;;;;;4.20;100.00;103267.16;5070553;28;20495;-67
2021/12/19 05:51:40;;;;;;;32.80;11.13;;;;;;;4.25;100.00;103270.09;5070211;28;20534;-67
2021/12/19 05:54:06;;;;;;;28.27;8.60;;;;;;;4.24;100.00;103268.28;5070196;28;20471;-67
2021/12/19 05:56:32;;;;;;;31.15;9.93;;;;;;;4.19;100.00;103271.50;5070450;28;20067;-67
2021/12/19 05:58:57;;;;;;;33.30;10.45;;;;;;;4.12;100.00;103269.25;5070261;28;20064;-67
2021/12/19 06:01:22;;;;;;;34.08;11.05;;;;;;;4.10;100.00;103257.75;5069981;28;20144;-67
2021/12/19 06:03:48;;;;;;;33.38;10.90;;;;;;;4.08;100.00;103248.91;5069159;28;20089;-67
2021/12/19 06:06:13;;;;;;;31.17;10.05;;;;;;;4.04;100.00;103244.25;5072353;28;20028;-67
2021/12/19 06:08:38;;;;;;;32.10;11.27;;;;;;;4.06;100.00;103246.97;5072148;28;20035;-67
2021/12/19 06:11:04;;;;;;;34.20;12.00;;;;;;;4.11;100.00;103251.72;5072454;28;20025;-67
2021/12/19 06:13:29;;;;;;;32.33;11.00;;;;;;;4.13;100.00;103244.88;5072343;28;20025;-67
2021/12/19 06:15:57;;;;;;;33.15;12.32;;;;;;;4.11;100.00;103251.72;5072125;28;20029;-66
2021/12/19 06:18:23;;;;;;;35.90;13.70;;;;;;;4.07;100.00;103244.47;5072524;28;20035;-67
2021/12/19 06:20:48;;;;;;;35.90;13.20;;;;;;;4.06;100.00;103250.50;5072389;28;20034;-67
2021/12/19 06:23:13;;;;;;;37.08;15.52;;;;;;;4.07;100.00;103249.69;5072233;28;20028;-67
2021/12/19 06:25:45;;;;;;;36.15;14.82;;;;;;;4.14;100.00;103246.69;5072063;28;20025;-68
2021/12/19 06:28:17;;;;;;;40.55;15.90;;;;;;;4.10;100.00;103242.06;5072044;28;20107;-67
2021/12/19 06:30:43;;;;;;;39.20;16.88;;;;;;;4.10;100.00;103244.66;5072185;28;20020;-67
2021/12/19 06:33:09;;;;;;;38.03;16.20;;;;;;;4.11;100.00;103248.22;5072209;28;20482;-67
2021/12/19 06:35:34;;;;;;;37.20;16.25;;;;;;;4.07;100.00;103243.56;5071912;28;20107;-67
2021/12/19 06:38:00;;;;;;;39.35;16.70;;;;;;;4.06;100.00;103245.25;5072083;28;20028;-67
2021/12/19 06:40:26;;;;;;;38.67;16.20;;;;;;;4.10;100.00;103236.81;5072138;28;20032;-67
2021/12/19 06:42:51;;;;;;;38.97;16.55;;;;;;;4.15;100.00;103231.88;5072639;28;20502;-67
2021/12/19 06:45:19;;;;;;;45.30;18.95;;;;;;;4.10;100.00;103234.19;5075443;28;20020;-67
2021/12/19 06:47:44;;;;;;;46.50;19.05;;;;;;;4.14;100.00;103235.34;5075649;28;20037;-67
2021/12/19 06:50:12;;;;;;;45.50;18.63;;;;;;;4.12;100.00;103227.38;5075446;28;20032;-67
2021/12/19 06:52:39;;;;;;;46.13;20.13;;;;;;;4.16;100.00;103223.25;5075527;28;20039;-67
2021/12/19 06:55:06;;;;;;;51.10;21.58;;;;;;;4.13;100.00;103218.69;5075836;28;20031;-66
2021/12/19 06:57:32;;;;;;;46.50;20.88;;;;;;;4.12;100.00;103216.91;5075564;28;20089;-66
2021/12/19 06:59:57;;;;;;;50.42;21.55;;;;;;;4.11;100.00;103199.38;5075291;28;20020;-66
2021/12/19 07:02:23;;;;;;;50.88;22.30;;;;;;;4.14;100.00;103202.19;5075604;28;20024;-67
2021/12/19 07:04:49;;;;;;;50.83;21.10;;;;;;;4.15;100.00;103197.84;5075125;28;20163;-66
2021/12/19 07:07:14;;;;;;;51.72;21.55;;;;;;;4.16;100.00;103192.72;5073570;28;20108;-67
2021/12/19 07:09:40;;;;;;;52.75;21.98;;;;;;;4.19;100.00;103192.97;5075332;28;20028;-68
2021/12/19 07:12:07;;;;;;;53.53;22.58;;;;;;;4.22;100.00;103197.47;5075141;28;20029;-67
2021/12/19 07:14:32;;;;;;;51.90;20.73;;;;;;;4.29;100.00;103198.81;5075214;28;20115;-68
2021/12/19 07:16:58;;;;;;;54.25;20.95;;;;;;;4.22;100.00;103192.22;5074985;28;20108;-68
2021/12/19 07:19:23;;;;;;;54.53;22.10;;;;;;;4.27;100.00;103197.81;5075046;28;20025;-69
2021/12/19 07:21:48;;;;;;;57.10;24.13;;;;;;;4.25;100.00;103200.31;5075059;28;20039;-69
2021/12/19 07:24:14;;;;;;;51.80;22.40;;;;;;;4.34;100.00;103198.31;5074914;28;20079;-70
2021/12/19 07:26:39;;;;;;;52.90;22.35;;;;;;;4.33;100.00;103201.72;5074753;28;20020;-69
2021/12/19 07:29:05;;;;;;;49.00;20.55;;;;;;;4.34;100.00;103197.41;5074951;28;20017;-69
2021/12/19 07:31:31;;;;;;;47.55;19.95;;;;;;;4.37;100.00;103200.25;5074627;28;20071;-69
2021/12/19 07:33:58;;;;;;;46.20;19.58;;;;;;;4.34;100.00;103192.19;5071995;28;20399;-68
2021/12/19 07:36:25;;;;;;;46.17;20.25;;;;;;;4.34;100.00;103193.06;5072351;28;20024;-67
2021/12/19 07:38:58;;;;;;;51.65;21.65;;;;;;;4.35;100.00;103193.97;5072401;28;20056;-68
2021/12/19 07:41:24;;;;;;;49.15;21.50;;;;;;;4.39;100.00;103187.25;5072125;28;20056;-71
2021/12/19 07:43:49;;;;;;;52.72;21.67;;;;;;;4.36;100.00;103182.69;5072319;28;20107;-71
2021/12/19 07:46:15;;;;;;;48.97;20.83;;;;;;;4.38;100.00;103186.31;5070882;28;20035;-72
2021/12/19 07:48:40;;;;;;;50.83;21.38;;;;;;;4.39;100.00;103182.00;5072211;28;20020;-71
2021/12/19 07:51:05;;;;;;;54.30;22.88;;;;;;;4.39;100.00;103180.28;5072120;28;20037;-71
2021/12/19 07:53:31;;;;;;;55.70;24.02;;;;;;;4.40;100.00;103183.81;5071458;28;20029;-71
2021/12/19 07:55:56;;;;;;;54.33;24.35;;;;;;;4.44;100.00;103178.91;5069563;28;20020;-70
2021/12/19 07:58:21;;;;;;;66.63;26.45;;;;;;;4.42;100.00;103172.63;5070632;28;20071;-67
2021/12/19 08:00:47;;;;;;;67.78;26.55;;;;;;;4.42;100.00;103174.34;5071938;28;20029;-68
2021/12/19 08:03:12;;;;;;;65.53;26.55;;;;;;;4.42;100.00;103180.50;5071372;28;20032;-67
2021/12/19 08:05:38;;;;;;;61.50;26.83;;;;;;;4.43;100.00;103178.78;5072617;28;20040;-67
2021/12/19 08:08:05;;;;;;;59.05;24.33;;;;;;;4.43;100.00;103171.84;5073914;28;20059;-68
2021/12/19 08:12:57;;;;;;;54.17;22.92;;;;;;;4.45;100.00;103175.44;5073605;28;20059;-66
2021/12/19 08:15:22;;;;;;;57.00;23.30;;;;;;;4.45;100.00;103164.06;5073610;28;20101;-67
2021/12/19 08:17:47;;;;;;;54.70;23.25;;;;;;;4.53;100.00;103165.50;5074181;28;20066;-67
2021/12/19 08:20:15;;;;;;;58.50;25.48;;;;;;;4.51;100.00;103168.03;5073608;28;20479;-67
2021/12/19 08:22:40;;;;;;;54.45;24.15;;;;;;;4.56;100.00;103167.38;5069522;28;20486;-69
2021/12/19 08:25:06;;;;;;;48.33;21.25;;;;;;;4.56;100.00;103168.31;5073971;28;20146;-68
2021/12/19 08:27:33;;;;;;;46.40;19.65;;;;;;;4.63;100.00;103169.59;5073519;28;20360;-69
2021/12/19 08:29:59;;;;;;;43.38;17.20;;;;;;;4.69;100.00;103159.56;5073631;28;20021;-71
2021/12/19 08:32:25;;;;;;;42.22;16.58;;;;;;;4.73;100.00;103164.16;5073891;28;20024;-69
2021/12/19 08:34:50;;;;;;;37.85;15.77;;;;;;;4.75;100.00;103169.50;5073316;28;20032;-69
2021/12/19 08:37:16;;;;;;;35.90;14.00;;;;;;;4.80;100.00;103165.47;5073502;28;20032;-69
2021/12/19 08:39:42;;;;;;;34.30;13.70;;;;;;;4.83;100.00;103166.56;5073698;28;20118;-69
2021/12/19 08:42:09;;;;;;;34.33;13.70;;;;;;;4.86;100.00;103166.81;5073229;28;20498;-69
2021/12/19 08:44:34;;;;;;;33.72;13.63;;;;;;;4.90;100.00;103165.28;5073287;28;20074;-68
2021/12/19 08:47:00;;;;;;;34.92;14.43;;;;;;;4.87;100.00;103170.31;5072053;28;20041;-70
2021/12/19 08:49:25;;;;;;;35.15;14.93;;;;;;;4.95;100.00;103173.44;5073151;28;20025;-69
2021/12/19 08:51:50;;;;;;;38.50;16.23;;;;;;;4.88;100.00;103167.78;5073186;28;20021;-70
2021/12/19 08:54:16;;;;;;;37.90;16.27;;;;;;;4.94;100.00;103169.00;5073289;28;20027;-69
2021/12/19 08:56:41;;;;;;;38.30;16.27;;;;;;;4.93;100.00;103156.72;5073323;28;20020;-69
2021/12/19 08:59:07;;;;;;;41.40;17.42;;;;;;;4.91;100.00;103160.91;5073044;28;20034;-68
2021/12/19 09:01:32;;;;;;;39.05;16.95;;;;;;;4.88;100.00;103152.06;5073061;28;20394;-69
2021/12/19 09:03:59;;;;;;;38.38;17.75;;;;;;;4.86;100.00;103156.31;5072684;28;20047;-69
2021/12/19 09:06:25;;;;;;;32.75;15.48;;;;;;;4.96;100.00;103149.03;5072672;28;20075;-68
2021/12/19 09:08:50;;;;;;;35.15;16.27;;;;;;;4.96;100.00;103149.94;5072792;28;20025;-67
2021/12/19 09:11:15;;;;;;;38.83;18.30;;;;;;;4.95;100.00;103147.22;5072676;28;20025;-68
2021/12/19 09:13:41;;;;;;;37.40;16.48;;;;;;;5.04;100.00;103147.81;5073017;28;20028;-67
2021/12/19 09:16:06;;;;;;;36.08;17.73;;;;;;;5.01;100.00;103142.34;5072728;28;20020;-68
2021/12/19 09:18:32;;;;;;;32.92;14.63;;;;;;;5.02;100.00;103147.72;5072721;28;20032;-67
2021/12/19 09:20:57;;;;;;;29.83;13.70;;;;;;;5.03;100.00;103152.13;5069070;28;20035;-68
2021/12/19 09:23:23;;;;;;;32.33;14.85;;;;;;;5.07;100.00;103142.75;5070235;28;20032;-68
2021/12/19 09:25:49;;;;;;;28.65;12.60;;;;;;;5.09;100.00;103140.25;5070147;28;20029;-68
2021/12/19 09:28:15;;;;;;;32.03;15.23;;;;;;;5.06;100.00;103149.69;5070152;28;20020;-69
2021/12/19 09:30:42;;;;;;;32.70;14.45;;;;;;;5.06;100.00;103133.97;5069003;28;20031;-67
2021/12/19 09:33:07;;;;;;;31.58;13.98;;;;;;;5.11;100.00;103136.91;5070112;28;20028;-67
2021/12/19 09:35:34;;;;;;;30.10;13.38;;;;;;;5.13;100.00;103132.66;5069168;28;20027;-68
2021/12/19 09:38:00;;;;;;;29.55;13.40;;;;;;;5.15;100.00;103135.38;5069748;28;20476;-68
2021/12/19 09:40:33;;;;;;;29.45;12.40;;;;;;;5.20;100.00;103134.84;5070286;28;20082;-67
2021/12/19 09:43:02;;;;;;;26.75;10.40;;;;;;;5.22;100.00;103135.84;5068720;28;20068;-67
2021/12/19 09:45:29;;;;;;;26.23;9.07;;;;;;;5.29;100.00;103136.25;5068809;28;20111;-67
2021/12/19 09:47:54;;;;;;;24.73;8.73;;;;;;;5.25;100.00;103137.75;5069825;28;20074;-67
2021/12/19 09:50:20;;;;;;;23.25;8.07;;;;;;;5.23;100.00;103128.91;5069986;28;20021;-68
2021/12/19 09:52:46;;;;;;;24.10;8.60;;;;;;;5.24;100.00;103131.63;5070102;28;20032;-68
2021/12/19 09:55:17;;;;;;;24.33;8.07;;;;;;;5.30;100.00;103135.44;5068544;28;20124;-67
2021/12/19 09:57:43;;;;;;;25.27;9.25;;;;;;;5.29;100.00;103134.53;5069197;28;20060;-67
2021/12/19 10:00:09;;;;;;;25.65;8.75;;;;;;;5.31;100.00;103130.28;5069902;28;20150;-66
2021/12/19 10:02:34;;;;;;;25.30;8.80;;;;;;;5.35;100.00;103136.63;5069909;28;20040;-68
2021/12/19 10:05:20;;;;;;;24.50;8.75;;;;;;;5.41;100.00;103137.00;5069812;28;20049;-66
2021/12/19 10:07:55;;;;;;;26.58;10.35;;;;;;;5.41;100.00;103131.75;5068877;28;20029;-66
2021/12/19 10:10:55;;;;;;;29.83;11.95;;;;;;;5.39;100.00;103136.00;5069449;28;20115;-67
2021/12/19 10:13:34;;;;;;;27.98;11.55;;;;;;;5.41;100.00;103124.78;5068754;28;20032;-68
2021/12/19 10:15:59;;;;;;;26.38;10.70;;;;;;;5.47;100.00;103124.25;5067805;28;20399;-69
2021/12/19 10:18:25;;;;;;;26.27;10.73;;;;;;;5.48;100.00;103122.56;5071204;28;20025;-68
2021/12/19 10:20:57;;;;;;;27.73;11.18;;;;;;;5.49;100.00;103122.66;5073764;28;20360;-67
2021/12/19 10:23:25;;;;;;;27.58;11.18;;;;;;;5.51;100.00;103114.88;5073760;28;20483;-66
2021/12/19 10:26:06;;;;;;;27.88;11.85;;;;;;;5.53;100.00;103114.16;5073075;28;20028;-67
2021/12/19 10:28:33;;;;;;;29.92;12.07;;;;;;;5.52;100.00;103108.78;5069894;28;20056;-67
2021/12/19 10:31:00;;;;;;;27.35;11.20;;;;;;;5.57;100.00;103112.63;5073463;28;20117;-67
2021/12/19 10:33:29;;;;;;;28.73;11.43;;;;;;;5.56;100.00;103109.09;5073413;28;20466;-67
2021/12/19 10:36:00;;;;;;;27.08;11.63;;;;;;;5.64;100.00;103112.19;5073475;28;20083;-67
2021/12/19 10:38:32;;;;;;;27.45;10.30;;;;;;;5.64;100.00;103098.16;5071683;28;20045;-69
2021/12/19 10:41:02;;;;;;;26.05;10.13;;;;;;;5.69;100.00;103094.09;5072975;28;20024;-68
2021/12/19 10:43:31;;;;;;;26.50;11.18;;;;;;;5.74;100.00;103100.53;5073508;28;20051;-69
2021/12/19 10:46:00;;;;;;;26.13;10.85;;;;;;;5.73;100.00;103090.84;5073793;28;20025;-67
2021/12/19 10:48:39;;;;;;;24.90;10.82;;;;;;;5.79;100.00;103093.81;5073074;28;20112;-67
2021/12/19 10:51:11;;;;;;;25.90;10.02;;;;;;;5.83;100.00;103089.69;5073325;28;20356;-68
2021/12/19 10:53:39;;;;;;;26.60;11.02;;;;;;;5.84;100.00;103083.59;5075564;28;20028;-67
2021/12/19 10:56:17;;;;;;;25.33;10.55;;;;;;;5.85;100.00;103082.78;5075351;28;20427;-68
2021/12/19 10:58:52;;;;;;;25.67;10.50;;;;;;;5.86;100.00;103081.97;5075256;28;20134;-68
2021/12/19 11:01:20;;;;;;;26.73;10.75;;;;;;;5.85;100.00;103075.81;5071883;28;20050;-68
2021/12/19 11:03:54;;;;;;;25.63;10.27;;;;;;;5.89;100.00;103088.31;5074766;28;20074;-68
2021/12/19 11:06:29;;;;;;;24.58;9.52;;;;;;;5.97;100.00;103075.69;5075488;28;20025;-67
2021/12/19 11:08:55;;;;;;;23.23;9.02;;;;;;;5.98;100.00;103071.31;5075321;28;20044;-68
2021/12/19 11:11:34;;;;;;;21.50;7.35;;;;;;;6.03;100.00;103067.22;5075140;28;20031;-68
2021/12/19 11:14:02;;;;;;;20.40;6.50;;;;;;;6.04;100.00;103064.72;5075289;28;20017;-69
2021/12/19 11:16:28;;;;;;;18.70;6.00;;;;;;;6.04;100.00;103055.91;5075093;28;20582;-68
2021/12/19 11:18:53;;;;;;;19.83;6.15;;;;;;;6.10;100.00;103054.56;5074974;28;20104;-68
2021/12/19 11:21:19;;;;;;;18.70;5.90;;;;;;;6.15;100.00;103044.31;5075085;28;20067;-67
2021/12/19 11:23:45;;;;;;;19.33;5.75;;;;;;;6.21;100.00;103034.16;5075295;28;20467;-68
2021/12/19 11:26:11;;;;;;;20.75;6.13;;;;;;;6.17;100.00;103037.41;5070758;28;20024;-68
2021/12/19 11:28:37;;;;;;;18.65;5.70;;;;;;;6.25;100.00;103027.38;5074615;28;20028;-68
2021/12/19 11:31:04;;;;;;;18.63;5.47;;;;;;;6.22;100.00;103016.69;5074816;28;20107;-67
2021/12/19 11:33:40;;;;;;;19.30;5.70;;;;;;;6.25;100.00;103020.38;5074614;28;20066;-68
2021/12/19 11:36:07;;;;;;;19.48;6.00;;;;;;;6.15;100.00;103010.19;5073353;28;20053;-67
2021/12/19 11:38:37;;;;;;;19.92;6.72;;;;;;;6.16;100.00;103009.38;5075065;28;20031;-68
2021/12/19 11:41:08;;;;;;;22.05;8.05;;;;;;;6.17;100.00;103005.91;5074824;28;20039;-68
2021/12/19 11:43:38;;;;;;;21.98;7.78;;;;;;;6.13;100.00;102998.69;5074612;28;20424;-67
2021/12/19 11:46:13;;;;;;;22.77;8.32;;;;;;;6.12;100.00;103002.13;5074345;28;20037;-68
2021/12/19 11:48:39;;;;;;;22.05;8.27;;;;;;;6.12;100.00;103002.13;5074719;28;20111;-67
2021/12/19 11:51:07;;;;;;;21.88;8.15;;;;;;;6.13;100.00;103003.03;5074823;28;20048;-66
2021/12/19 11:53:35;;;;;;;23.42;8.10;;;;;;;6.17;100.00;103005.00;5074345;28;20028;-66
2021/12/19 11:56:06;;;;;;;22.85;8.60;;;;;;;6.15;100.00;102998.78;5074263;28;20025;-67
2021/12/19 11:58:45;;;;;;;21.52;8.18;;;;;;;6.14;100.00;102989.97;5074555;28;20048;-67
2021/12/19 12:01:14;;;;;;;22.80;8.65;;;;;;;6.17;100.00;102994.50;5074607;28;20032;-66
2021/12/19 12:03:45;;;;;;;22.15;8.55;;;;;;;6.16;100.00;102998.88;5074115;28;20058;-67
2021/12/19 12:06:21;;;;;;;21.48;8.50;;;;;;;6.16;100.00;102993.63;5074339;28;20025;-67
2021/12/19 12:09:10;;;;;;;21.30;7.90;;;;;;;6.23;100.00;102981.72;5070896;28;20021;-67
2021/12/19 12:12:00;;;;;;;20.98;6.80;;;;;;;6.26;100.00;102979.25;5073950;28;20471;-66
2021/12/19 12:14:29;;;;;;;20.30;6.63;;;;;;;6.32;100.00;102983.94;5064450;28;20038;-67
2021/12/19 12:17:01;;;;;;;20.60;6.47;;;;;;;6.34;100.00;102977.09;5074083;28;20025;-66
2021/12/19 12:19:49;;;;;;;19.73;6.22;;;;;;;6.35;100.00;102976.22;5073689;28;20024;-67
2021/12/19 12:22:30;;;;;;;18.48;5.63;;;;;;;6.32;100.00;102968.19;5067855;28;20107;-66
2021/12/19 12:25:02;;;;;;;18.55;5.72;;;;;;;6.31;100.00;102972.56;5070132;28;20450;-67
2021/12/19 12:27:35;;;;;;;19.70;5.63;;;;;;;6.30;100.00;102956.72;5073222;28;20052;-66